This is the latest recevied weather packets stored in our database for station/object DK6SC-10. If no packets are shown the sender has not sent any weather packets the latest 1 day(s).
| Time | Temp. | Humidity | Pressure | Rain* | Wind** | Luminosity | Snow |
|---|---|---|---|---|---|---|---|
| 1788246099 | 35° C | 25% | 986.2 hPa | - | - | - | - |
| 1788245199 | 35° C | 24% | 986.2 hPa | - | - | - | - |
| 1788244299 | 35° C | 24% | 986.2 hPa | - | - | - | - |
| 1788243399 | 32.22° C | 29% | 986.1 hPa | - | - | - | - |
| 1788242499 | 22.78° C | 54% | 986.2 hPa | - | - | - | - |
| 1788241599 | 16.11° C | 81% | 986.1 hPa | - | - | - | - |
| 1788240699 | 14.44° C | 84% | 986 hPa | - | - | - | - |
| 1788239799 | 12.78° C | 91% | 986.1 hPa | - | - | - | - |
| 1788238899 | 12.22° C | 94% | 986.1 hPa | - | - | - | - |
| 1788237999 | 11.67° C | 95% | 986 hPa | - | - | - | - |
| 1788237099 | 12.22° C | 95% | 985.9 hPa | - | - | - | - |
| 1788236199 | 12.22° C | 95% | 985.8 hPa | - | - | - | - |
| 1788235298 | 12.22° C | 94% | 985.9 hPa | - | - | - | - |
| 1788234398 | 12.78° C | 93% | 985.9 hPa | - | - | - | - |
| 1788233498 | 12.78° C | 92% | 985.7 hPa | - | - | - | - |
| 1788232598 | 13.33° C | 88% | 985.6 hPa | - | - | - | - |
| 1788231698 | 13.89° C | 86% | 985.8 hPa | - | - | - | - |
| 1788230798 | 13.89° C | 87% | 985.7 hPa | - | - | - | - |
| 1788228098 | 13.33° C | 90% | 985.5 hPa | - | - | - | - |
| 1788227198 | 13.33° C | 91% | 985.5 hPa | - | - | - | - |
| 1788226298 | 13.33° C | 89% | 985.4 hPa | - | - | - | - |
| 1788225398 | 13.33° C | 85% | 985.3 hPa | - | - | - | - |
| 1788224497 | 14.44° C | 80% | 985.3 hPa | - | - | - | - |
| 1788223597 | 15° C | 80% | 985.2 hPa | - | - | - | - |
| 1788222697 | 15.56° C | 78% | 985.2 hPa | - | - | - | - |
* Rain since midnight (hover to see other rain measurements)
** Current wind speed in m/s (hover to see current wind gust speed)